createdAt,value
2023-03-21T00:01:51.620Z,14.95
2023-03-21T00:04:18.480Z,15.00
2023-03-21T00:06:45.368Z,14.93
2023-03-21T00:09:12.254Z,15.20
2023-03-21T00:11:39.116Z,15.77
2023-03-21T00:14:08.735Z,15.20
2023-03-21T00:16:36.186Z,15.82
2023-03-21T00:19:06.242Z,16.45
2023-03-21T00:21:59.256Z,16.67
2023-03-21T00:24:22.850Z,17.55
2023-03-21T00:26:50.936Z,19.05
2023-03-21T00:29:17.838Z,17.92
2023-03-21T00:31:46.696Z,19.27
2023-03-21T00:36:45.433Z,19.05
2023-03-21T00:39:12.341Z,19.90
2023-03-21T00:41:42.860Z,20.58
2023-03-21T00:44:15.426Z,20.40
2023-03-21T00:46:47.290Z,19.77
2023-03-21T00:49:21.457Z,20.08
2023-03-21T00:51:51.087Z,20.67
2023-03-21T00:54:18.220Z,20.02
2023-03-21T00:56:45.023Z,20.70
2023-03-21T00:59:11.792Z,20.92
2023-03-21T01:01:38.667Z,20.40
2023-03-21T01:04:10.854Z,21.83
2023-03-21T01:06:39.695Z,22.48
2023-03-21T01:09:18.097Z,21.95
2023-03-21T01:11:45.415Z,23.52
2023-03-21T01:14:22.558Z,24.20
2023-03-21T01:19:29.165Z,23.55
2023-03-21T01:22:00.390Z,23.63
2023-03-21T01:24:27.352Z,25.48
2023-03-21T01:26:54.219Z,25.05
2023-03-21T01:29:21.096Z,26.90
2023-03-21T01:31:48.335Z,26.95
2023-03-21T01:34:15.515Z,27.52
2023-03-21T01:36:42.578Z,25.83
2023-03-21T01:39:14.831Z,26.70
2023-03-21T01:41:44.425Z,27.50
2023-03-21T01:44:28.953Z,27.50
2023-03-21T01:47:13.154Z,27.55
2023-03-21T01:49:49.998Z,27.42
2023-03-21T01:52:38.726Z,27.73
2023-03-21T01:55:14.559Z,26.90
2023-03-21T01:58:04.943Z,26.88
2023-03-21T02:00:39.207Z,26.80
2023-03-21T02:03:33.307Z,26.10
2023-03-21T02:06:48.987Z,25.15
2023-03-21T02:09:35.151Z,26.10
2023-03-21T02:12:04.151Z,25.70
2023-03-21T02:14:34.452Z,25.13
2023-03-21T02:17:19.921Z,26.08
2023-03-21T02:20:08.992Z,25.45
2023-03-21T02:23:26.564Z,24.98
2023-03-21T02:26:02.892Z,25.33
2023-03-21T02:28:52.642Z,26.00
2023-03-21T02:31:26.558Z,26.15
2023-03-21T02:34:20.914Z,25.58
2023-03-21T02:37:11.984Z,25.80
2023-03-21T02:40:01.054Z,23.90
2023-03-21T02:42:30.492Z,25.10
2023-03-21T02:45:08.191Z,25.40
2023-03-21T02:47:49.610Z,24.67
2023-03-21T02:50:37.450Z,25.40
2023-03-21T02:53:08.999Z,25.52
2023-03-21T02:55:37.516Z,25.00
2023-03-21T02:58:13.142Z,25.38
2023-03-21T03:00:49.484Z,24.67
2023-03-21T03:03:34.582Z,25.50
2023-03-21T03:06:08.297Z,25.52
2023-03-21T03:09:02.967Z,26.35
2023-03-21T03:11:46.186Z,24.30
2023-03-21T03:14:49.563Z,24.63
2023-03-21T03:17:29.881Z,25.20
2023-03-21T03:20:21.694Z,25.85
2023-03-21T03:23:10.496Z,24.80
2023-03-21T03:25:50.121Z,24.23
2023-03-21T03:28:24.824Z,24.85
2023-03-21T03:31:08.063Z,24.30
2023-03-21T03:33:47.312Z,24.50
2023-03-21T03:36:33.423Z,25.20
2023-03-21T03:39:11.593Z,23.77
2023-03-21T03:42:10.137Z,24.60
2023-03-21T03:44:43.569Z,23.92
2023-03-21T03:47:32.929Z,24.60
2023-03-21T03:50:09.336Z,23.42
2023-03-21T03:52:55.631Z,23.80
2023-03-21T03:55:27.206Z,23.40
2023-03-21T03:57:58.076Z,22.63
2023-03-21T04:00:25.638Z,23.40
2023-03-21T04:02:52.626Z,22.40
2023-03-21T04:05:23.953Z,23.23
2023-03-21T04:07:51.062Z,23.67
2023-03-21T04:10:22.670Z,22.73
2023-03-21T04:12:50.094Z,23.75
2023-03-21T04:15:42.926Z,23.40
2023-03-21T04:18:14.363Z,23.15
2023-03-21T04:20:41.206Z,23.38
2023-03-21T04:23:08.493Z,23.47
2023-03-21T04:25:36.917Z,24.08
2023-03-21T04:28:05.688Z,23.38
2023-03-21T04:31:05.297Z,23.10
2023-03-21T04:33:44.635Z,23.92
2023-03-21T04:36:24.678Z,23.05
2023-03-21T04:38:53.741Z,22.52
2023-03-21T04:41:20.881Z,22.67
2023-03-21T04:43:49.287Z,22.90
2023-03-21T04:46:16.496Z,23.50
2023-03-21T04:48:43.366Z,22.52
2023-03-21T04:51:10.406Z,23.88
2023-03-21T04:53:38.350Z,24.40
2023-03-21T04:56:06.656Z,25.17
2023-03-21T04:58:34.442Z,25.80
2023-03-21T05:01:02.476Z,25.15
2023-03-21T05:03:34.364Z,25.95
2023-03-21T05:06:01.688Z,26.63
2023-03-21T05:08:28.456Z,26.73
2023-03-21T05:10:55.326Z,26.45
2023-03-21T05:13:25.714Z,26.60
2023-03-21T05:15:52.584Z,26.77
2023-03-21T05:18:24.857Z,26.85
2023-03-21T05:21:07.760Z,26.30
2023-03-21T05:23:39.429Z,27.98
2023-03-21T05:26:08.954Z,29.27
2023-03-21T05:28:50.180Z,27.67
2023-03-21T05:31:20.768Z,27.60
2023-03-21T05:33:51.560Z,28.88
2023-03-21T05:36:19.499Z,28.40
2023-03-21T05:38:46.789Z,28.35
2023-03-21T05:41:19.068Z,28.83
2023-03-21T05:43:48.665Z,28.52
2023-03-21T05:46:17.230Z,28.58
2023-03-21T05:48:45.284Z,29.38
2023-03-21T05:51:15.548Z,28.27
2023-03-21T05:53:42.343Z,29.17
2023-03-21T05:56:10.244Z,28.80
2023-03-21T05:58:52.854Z,29.02
2023-03-21T06:01:21.792Z,29.13
2023-03-21T06:03:57.028Z,28.27
2023-03-21T06:06:26.912Z,27.75
2023-03-21T06:09:00.212Z,28.35
2023-03-21T06:11:33.067Z,29.33
2023-03-21T06:14:19.380Z,28.65
2023-03-21T06:16:56.522Z,28.55
2023-03-21T06:19:23.448Z,29.35
2023-03-21T06:22:00.730Z,30.15
2023-03-21T06:24:27.912Z,28.65
2023-03-21T06:26:54.718Z,29.25
2023-03-21T06:29:21.824Z,29.40
2023-03-21T06:31:50.143Z,29.23
2023-03-21T06:34:17.899Z,29.65
2023-03-21T06:36:46.629Z,31.27
2023-03-21T06:39:16.079Z,29.15
2023-03-21T06:41:44.306Z,30.30
2023-03-21T06:44:11.189Z,30.15
2023-03-21T06:46:46.350Z,29.05
2023-03-21T06:49:18.888Z,30.05
2023-03-21T06:51:46.180Z,29.63
2023-03-21T06:54:19.040Z,29.48
2023-03-21T06:56:55.801Z,29.75
2023-03-21T06:59:34.622Z,29.77
2023-03-21T07:02:04.448Z,29.55
2023-03-21T07:04:35.455Z,29.20
2023-03-21T07:07:02.481Z,29.55
2023-03-21T07:09:29.696Z,27.65
2023-03-21T07:12:02.171Z,28.00
2023-03-21T07:14:41.489Z,28.85
2023-03-21T07:17:08.381Z,27.80
2023-03-21T07:19:35.283Z,27.50
2023-03-21T07:22:02.163Z,27.60
2023-03-21T07:24:29.176Z,27.52
2023-03-21T07:26:56.221Z,27.55
2023-03-21T07:29:23.208Z,27.52
2023-03-21T07:31:50.311Z,27.05
2023-03-21T07:34:17.679Z,26.63
2023-03-21T07:36:45.272Z,25.10
2023-03-21T07:39:13.149Z,25.92
2023-03-21T07:41:40.242Z,25.73
2023-03-21T07:44:13.742Z,26.27
2023-03-21T07:46:40.883Z,25.48
2023-03-21T07:49:08.790Z,24.65
2023-03-21T07:51:36.077Z,24.13
2023-03-21T07:54:03.014Z,23.87
2023-03-21T07:56:29.812Z,24.33
2023-03-21T07:58:56.599Z,23.23
2023-03-21T08:01:23.429Z,23.92
2023-03-21T08:03:51.303Z,23.75
2023-03-21T08:06:18.188Z,22.92
2023-03-21T08:08:44.980Z,23.23
2023-03-21T08:11:12.316Z,21.85
2023-03-21T08:13:39.664Z,23.15
2023-03-21T08:16:08.114Z,21.37
2023-03-21T08:18:35.266Z,22.45
2023-03-21T08:21:02.704Z,22.90
2023-03-21T08:23:29.723Z,21.90
2023-03-21T08:25:57.345Z,21.30
2023-03-21T08:28:24.886Z,21.25
2023-03-21T08:30:51.903Z,21.08
2023-03-21T08:33:19.108Z,21.15
2023-03-21T08:35:46.673Z,20.88
2023-03-21T08:38:13.919Z,20.83
2023-03-21T08:40:41.414Z,20.63
2023-03-21T08:43:08.362Z,20.67
2023-03-21T08:45:35.906Z,20.85
2023-03-21T08:48:02.862Z,20.55
2023-03-21T08:50:31.716Z,21.23
2023-03-21T08:52:58.606Z,21.60
2023-03-21T08:55:25.912Z,21.65
2023-03-21T08:57:52.668Z,21.05
2023-03-21T09:00:20.628Z,20.70
2023-03-21T09:02:49.521Z,20.77
2023-03-21T09:05:16.986Z,21.30
2023-03-21T09:07:44.923Z,20.23
2023-03-21T09:10:20.622Z,20.50
2023-03-21T09:12:53.267Z,20.45
2023-03-21T09:15:22.027Z,19.45
2023-03-21T09:17:53.971Z,19.20
2023-03-21T09:20:26.144Z,19.23
2023-03-21T09:22:53.495Z,19.77
2023-03-21T09:25:21.088Z,19.65
2023-03-21T09:27:48.400Z,19.08
2023-03-21T09:30:21.197Z,18.87
2023-03-21T09:32:49.400Z,18.30
2023-03-21T09:37:47.799Z,17.48
2023-03-21T09:40:25.520Z,16.83
2023-03-21T09:43:06.957Z,17.77
2023-03-21T09:45:47.739Z,17.38
2023-03-21T09:48:57.170Z,16.48
2023-03-21T09:51:28.772Z,15.52
2023-03-21T09:54:00.535Z,15.73
2023-03-21T09:56:27.994Z,16.88
2023-03-21T09:58:59.294Z,16.77
2023-03-21T10:01:34.216Z,17.27
2023-03-21T10:04:05.426Z,17.65
2023-03-21T10:06:34.196Z,17.50
2023-03-21T10:09:06.737Z,16.90
2023-03-21T10:11:57.264Z,16.88
2023-03-21T10:14:41.504Z,16.77
2023-03-21T10:17:33.391Z,15.60
2023-03-21T10:20:24.805Z,15.98
2023-03-21T10:22:54.199Z,16.83
2023-03-21T10:25:40.580Z,15.50
2023-03-21T10:28:09.731Z,14.98
2023-03-21T10:30:41.004Z,15.63
2023-03-21T10:33:14.395Z,14.93
2023-03-21T10:35:45.860Z,13.65
2023-03-21T10:38:17.607Z,13.60
2023-03-21T10:40:44.718Z,13.57
2023-03-21T10:43:25.848Z,13.77
2023-03-21T10:45:54.733Z,13.45
2023-03-21T10:48:22.913Z,13.25
2023-03-21T10:50:53.960Z,13.15
2023-03-21T10:53:29.749Z,12.88
2023-03-21T10:55:59.597Z,13.23
2023-03-21T10:58:34.632Z,13.18
2023-03-21T11:01:09.455Z,13.15
2023-03-21T11:03:38.654Z,13.23
2023-03-21T11:06:15.186Z,13.63
2023-03-21T11:08:47.357Z,13.65
2023-03-21T11:11:24.181Z,12.35
2023-03-21T11:14:01.011Z,12.38
2023-03-21T11:16:33.126Z,12.52
2023-03-21T11:19:16.351Z,11.85
2023-03-21T11:21:43.752Z,12.25
2023-03-21T11:24:19.028Z,12.23
2023-03-21T11:26:49.578Z,12.07
2023-03-21T11:29:22.191Z,12.05
2023-03-21T11:31:49.128Z,11.52
2023-03-21T11:34:30.847Z,11.77
2023-03-21T11:37:02.739Z,11.70
2023-03-21T11:39:34.687Z,10.48
2023-03-21T11:42:01.589Z,9.95
2023-03-21T11:44:43.697Z,10.02
2023-03-21T11:47:13.890Z,10.23
2023-03-21T11:49:40.706Z,9.35
2023-03-21T11:52:14.369Z,9.43
2023-03-21T11:55:00.808Z,9.45
2023-03-21T11:58:13.507Z,9.88
2023-03-21T12:01:03.040Z,9.55
2023-03-21T12:03:47.819Z,9.82
2023-03-21T12:06:30.493Z,9.77
2023-03-21T12:09:00.292Z,9.27
2023-03-21T12:11:51.226Z,9.45
2023-03-21T12:14:34.470Z,9.25
2023-03-21T12:17:14.068Z,9.00
2023-03-21T12:20:12.076Z,9.15
2023-03-21T12:22:52.474Z,9.55
2023-03-21T12:25:27.724Z,9.35
2023-03-21T12:28:10.473Z,10.20
2023-03-21T12:30:57.182Z,9.80
2023-03-21T12:33:36.630Z,9.60
2023-03-21T12:36:27.136Z,10.48
2023-03-21T12:39:17.613Z,10.52
2023-03-21T12:42:05.966Z,9.98
2023-03-21T12:44:38.786Z,10.32
2023-03-21T12:47:11.754Z,10.13
2023-03-21T12:49:52.882Z,9.80
2023-03-21T12:52:26.194Z,9.48
2023-03-21T12:54:52.965Z,9.57
2023-03-21T12:57:26.416Z,8.85
2023-03-21T13:00:15.988Z,9.63
2023-03-21T13:02:55.448Z,9.70
2023-03-21T13:05:28.144Z,9.02
2023-03-21T13:08:03.451Z,8.68
2023-03-21T13:10:31.056Z,8.70
2023-03-21T13:13:19.628Z,9.00
2023-03-21T13:15:53.887Z,8.88
2023-03-21T13:18:42.030Z,8.20
2023-03-21T13:21:11.725Z,8.63
2023-03-21T13:23:39.486Z,7.53
2023-03-21T13:26:11.234Z,7.63
2023-03-21T13:28:40.932Z,7.05
2023-03-21T13:31:19.714Z,7.25
2023-03-21T13:33:49.701Z,6.40
2023-03-21T13:36:23.544Z,6.72
2023-03-21T13:38:53.625Z,7.32
2023-03-21T13:41:48.918Z,6.63
2023-03-21T13:44:22.137Z,6.40
2023-03-21T13:47:01.558Z,6.72
2023-03-21T13:49:34.833Z,6.70
2023-03-21T13:52:22.836Z,6.80
2023-03-21T13:54:54.899Z,7.22
2023-03-21T13:57:30.498Z,6.47
2023-03-21T14:00:19.172Z,6.80
2023-03-21T14:03:08.436Z,6.90
2023-03-21T14:05:37.404Z,6.50
2023-03-21T14:08:15.328Z,6.07
2023-03-21T14:10:49.231Z,5.88
2023-03-21T14:13:20.215Z,6.45
2023-03-21T14:15:59.678Z,6.45
2023-03-21T14:18:51.682Z,6.40
2023-03-21T14:21:28.062Z,6.28
2023-03-21T14:24:00.863Z,6.05
2023-03-21T14:26:37.627Z,5.90
2023-03-21T14:29:12.401Z,6.60
2023-03-21T14:34:15.382Z,6.75
2023-03-21T14:36:45.769Z,6.47
2023-03-21T14:39:20.254Z,6.15
2023-03-21T14:41:56.457Z,6.25
2023-03-21T14:44:38.105Z,6.43
2023-03-21T14:47:24.054Z,6.80
2023-03-21T14:49:51.811Z,6.30
2023-03-21T14:52:31.314Z,6.43
2023-03-21T14:54:59.753Z,6.55
2023-03-21T14:57:30.902Z,6.40
2023-03-21T15:00:01.956Z,6.80
2023-03-21T15:02:40.730Z,6.70
2023-03-21T15:05:19.341Z,7.40
2023-03-21T15:07:56.531Z,7.47
2023-03-21T15:10:25.017Z,6.97
2023-03-21T15:12:58.036Z,6.40
2023-03-21T15:15:36.717Z,6.97
2023-03-21T15:18:06.436Z,6.90
2023-03-21T15:20:37.036Z,6.80
2023-03-21T15:23:09.799Z,7.75
2023-03-21T15:25:37.669Z,7.28
2023-03-21T15:28:06.537Z,6.90
2023-03-21T15:30:34.240Z,7.38
2023-03-21T15:33:10.407Z,7.45
2023-03-21T15:35:46.781Z,7.38
2023-03-21T15:38:44.972Z,7.50
2023-03-21T15:41:20.954Z,7.80
2023-03-21T15:44:14.256Z,7.68
2023-03-21T15:46:48.137Z,7.57
2023-03-21T15:49:15.402Z,7.90
2023-03-21T15:51:53.083Z,7.60
2023-03-21T15:54:27.956Z,8.20
2023-03-21T15:56:57.123Z,8.18
2023-03-21T15:59:27.349Z,8.05
2023-03-21T16:01:54.244Z,8.70
2023-03-21T16:04:23.624Z,8.60
2023-03-21T16:07:16.421Z,8.30
2023-03-21T16:09:46.029Z,8.57
2023-03-21T16:12:16.490Z,8.65
2023-03-21T16:14:47.240Z,8.98
2023-03-21T16:17:46.123Z,8.65
2023-03-21T16:20:20.204Z,8.65
2023-03-21T16:22:48.087Z,8.10
2023-03-21T16:25:15.810Z,8.60
2023-03-21T16:27:42.789Z,9.35
2023-03-21T16:30:14.117Z,8.65
2023-03-21T16:32:41.038Z,9.50
2023-03-21T16:35:08.458Z,9.15
2023-03-21T16:37:35.416Z,9.65
2023-03-21T16:40:05.694Z,9.75
2023-03-21T16:42:32.635Z,9.77
2023-03-21T16:44:59.383Z,10.45
2023-03-21T16:47:26.239Z,10.68
2023-03-21T16:49:53.061Z,11.02
2023-03-21T16:52:19.851Z,11.15
2023-03-21T16:54:46.677Z,11.07
2023-03-21T16:57:28.793Z,11.45
2023-03-21T16:59:56.448Z,10.80
2023-03-21T17:02:26.139Z,11.60
2023-03-21T17:04:52.959Z,12.00
2023-03-21T17:07:20.171Z,13.45
2023-03-21T17:09:47.987Z,13.32
2023-03-21T17:12:16.216Z,13.18
2023-03-21T17:19:39.546Z,13.80
2023-03-21T17:22:06.870Z,13.73
2023-03-21T17:24:33.941Z,14.70
2023-03-21T17:27:02.568Z,14.43
2023-03-21T17:29:29.754Z,14.23
2023-03-21T17:31:56.750Z,14.75
2023-03-21T17:34:23.486Z,15.30
2023-03-21T17:36:53.465Z,14.35
2023-03-21T17:39:24.091Z,14.95
2023-03-21T17:41:52.048Z,14.63
2023-03-21T17:44:20.367Z,15.70
2023-03-21T17:46:49.530Z,14.82
2023-03-21T17:49:17.385Z,15.57
2023-03-21T17:51:46.794Z,15.20
2023-03-21T17:54:13.694Z,15.18
2023-03-21T17:56:41.908Z,15.30
2023-03-21T18:01:38.259Z,16.27
2023-03-21T18:04:05.425Z,16.23
2023-03-21T18:06:34.552Z,15.88
2023-03-21T18:09:06.794Z,16.25
2023-03-21T18:11:33.897Z,16.58
2023-03-21T18:14:14.341Z,15.98
2023-03-21T18:16:42.892Z,16.50
2023-03-21T18:19:12.787Z,16.00
2023-03-21T18:21:45.359Z,16.60
2023-03-21T18:24:13.571Z,15.65
2023-03-21T18:26:41.159Z,15.95
2023-03-21T18:32:05.850Z,14.43
2023-03-21T18:34:35.880Z,13.25
2023-03-21T18:37:04.151Z,12.15
2023-03-21T18:39:32.338Z,12.90
2023-03-21T18:42:04.812Z,11.82
2023-03-21T18:44:38.012Z,11.52
2023-03-21T18:47:06.933Z,13.65
2023-03-21T18:52:22.731Z,13.70
2023-03-21T18:57:35.856Z,14.10
2023-03-21T19:00:11.294Z,14.07
2023-03-21T19:02:45.681Z,14.73
2023-03-21T19:05:15.529Z,13.60
2023-03-21T19:07:42.900Z,13.75
2023-03-21T19:10:19.734Z,14.40
2023-03-21T19:12:49.193Z,15.32
2023-03-21T19:15:19.375Z,14.73
2023-03-21T19:20:34.111Z,15.23
2023-03-21T19:23:01.152Z,14.40
2023-03-21T19:25:28.013Z,14.00
2023-03-21T19:27:54.924Z,13.85
2023-03-21T19:30:21.895Z,14.20
2023-03-21T19:32:48.801Z,14.35
2023-03-21T19:35:16.293Z,15.10
2023-03-21T19:37:43.755Z,15.38
2023-03-21T19:40:11.267Z,16.00
2023-03-21T19:42:38.515Z,16.27
2023-03-21T19:45:06.146Z,15.80
2023-03-21T19:47:33.063Z,16.02
2023-03-21T19:52:47.191Z,16.98
2023-03-21T19:55:14.927Z,17.27
2023-03-21T19:57:41.909Z,18.27
2023-03-21T20:00:11.378Z,19.25
2023-03-21T20:02:38.694Z,18.77
2023-03-21T20:05:07.674Z,19.98
2023-03-21T20:07:34.835Z,19.40
2023-03-21T20:10:01.685Z,21.15
2023-03-21T20:12:28.717Z,21.48
2023-03-21T20:15:10.387Z,22.67
2023-03-21T20:17:43.000Z,21.08
2023-03-21T20:20:10.667Z,22.35
2023-03-21T20:23:05.294Z,24.00
2023-03-21T20:25:24.687Z,24.63
2023-03-21T20:28:10.468Z,24.25
2023-03-21T20:30:44.353Z,24.63
2023-03-21T20:33:11.493Z,24.55
2023-03-21T20:36:24.059Z,24.70
2023-03-21T20:38:26.051Z,23.10
2023-03-21T20:40:52.952Z,23.33
2023-03-21T20:44:11.655Z,23.70
2023-03-21T20:46:09.679Z,23.20
2023-03-21T20:48:38.144Z,23.08
2023-03-21T20:51:59.981Z,22.77
2023-03-21T20:53:55.816Z,22.80
2023-03-21T20:56:22.872Z,23.80
2023-03-21T20:59:04.795Z,24.10
2023-03-21T21:01:36.777Z,23.90
2023-03-21T21:04:03.784Z,24.08
2023-03-21T21:06:31.467Z,24.35
2023-03-21T21:09:00.349Z,23.70
2023-03-21T21:12:05.070Z,23.40
2023-03-21T21:14:15.847Z,22.83
2023-03-21T21:16:42.756Z,23.15
2023-03-21T21:19:09.900Z,22.85
2023-03-21T21:21:37.446Z,24.00
2023-03-21T21:24:07.496Z,24.23
2023-03-21T21:26:35.046Z,26.10
2023-03-21T21:29:02.001Z,26.33
2023-03-21T21:31:29.086Z,24.52
2023-03-21T21:33:55.874Z,26.70
2023-03-21T21:36:22.729Z,27.35
2023-03-21T21:38:49.587Z,26.98
2023-03-21T21:41:20.332Z,25.67
2023-03-21T21:43:47.490Z,25.60
2023-03-21T21:46:14.469Z,24.30
2023-03-21T21:48:42.226Z,25.20
2023-03-21T21:51:09.956Z,26.38
2023-03-21T21:53:37.783Z,25.13
2023-03-21T21:56:06.228Z,24.55
2023-03-21T21:58:53.629Z,24.33
2023-03-21T22:01:20.950Z,25.00
2023-03-21T22:03:48.430Z,25.05
2023-03-21T22:06:15.964Z,24.17
2023-03-21T22:08:46.909Z,25.50
2023-03-21T22:11:18.535Z,25.83
2023-03-21T22:13:46.665Z,25.20
2023-03-21T22:16:13.504Z,24.67
2023-03-21T22:18:40.371Z,25.02
2023-03-21T22:21:07.319Z,25.70
2023-03-21T22:23:34.354Z,24.10
2023-03-21T22:26:01.545Z,23.92
2023-03-21T22:28:28.544Z,24.17
2023-03-21T22:30:55.976Z,24.17
2023-03-21T22:33:23.167Z,24.43
2023-03-21T22:35:51.482Z,25.10
2023-03-21T22:38:24.083Z,23.65
2023-03-21T22:40:58.634Z,23.00
2023-03-21T22:43:25.908Z,24.00
2023-03-21T22:45:53.307Z,28.58
2023-03-21T22:48:21.231Z,26.50
2023-03-21T22:50:48.569Z,23.67
2023-03-21T22:53:15.551Z,24.30
2023-03-21T22:55:42.562Z,23.90
2023-03-21T22:58:09.387Z,23.35
2023-03-21T23:00:36.251Z,22.98
2023-03-21T23:03:03.287Z,22.00
2023-03-21T23:05:30.176Z,22.88
2023-03-21T23:07:57.038Z,22.98
2023-03-21T23:10:25.507Z,23.13
2023-03-21T23:12:52.384Z,22.95
2023-03-21T23:15:19.284Z,22.50
2023-03-21T23:17:46.527Z,22.20
2023-03-21T23:20:13.485Z,22.73
2023-03-21T23:22:41.128Z,21.63
2023-03-21T23:25:08.286Z,22.25
2023-03-21T23:27:36.048Z,21.88
2023-03-21T23:30:04.898Z,22.08
2023-03-21T23:32:32.365Z,21.95
2023-03-21T23:34:59.599Z,22.17
2023-03-21T23:37:26.559Z,22.17
2023-03-21T23:39:55.191Z,22.35
2023-03-21T23:42:23.756Z,22.75
2023-03-21T23:44:50.499Z,22.00
2023-03-21T23:47:17.571Z,22.88
2023-03-21T23:49:45.283Z,21.83
2023-03-21T23:52:12.046Z,21.85
2023-03-21T23:54:39.026Z,21.95
2023-03-21T23:57:05.831Z,21.73
2023-03-21T23:59:33.395Z,20.88
